Terminal Aerodrome Forecast
Issued by NWS

Home | Current Version | Previous Version | Text Only | Print | Product List | Glossary On
Versions: 1 2 3 4 5 6 7 8 9 10 11 12
551
FTUS41 KBTV 191120
TAFSLK
TAF
KSLK 191120Z 1912/2012 25007KT P6SM SKC
     FM191400 22012G20KT P6SM SKC
     FM191700 22015G29KT P6SM FEW200
     FM200000 26018G23KT P6SM SCT050 SCT150
     FM200200 26013KT P6SM FEW250
     FM200600 VRB05KT P6SM SKC=

USA.gov is the U.S. government's official web portal to all federal, state and local government web resources and services.